Time;durP1;ratioP1;P1;durP2;ratioP2;P2;SDS_P1;SDS_P2;PMS_P1;PMS_P2;Temp;Humidity;BMP_temperature;BMP_pressure;BME280_temperature;BME280_humidity;BME280_pressure;Samples;Min_cycle;Max_cycle;Signal;HPM_P1;HPM_P2
2022/09/09 00:00:15;;;;;;;14.98;12.18;;;25.30;1.00;;;;;;5031442;28;20051;-59
2022/09/09 00:02:50;;;;;;;13.07;11.73;;;25.10;1.00;;;;;;5029638;28;20053;-58
2022/09/09 00:05:43;;;;;;;15.23;11.93;;;25.20;1.00;;;;;;5030000;28;20033;-58
2022/09/09 00:08:18;;;;;;;12.75;10.75;;;25.20;1.00;;;;;;5023656;28;20372;-59
2022/09/09 00:10:44;;;;;;;13.18;11.80;;;25.20;1.00;;;;;;5032815;28;20017;-56
2022/09/09 00:13:31;;;;;;;14.30;12.23;;;25.20;1.00;;;;;;5033757;28;20033;-58
2022/09/09 00:16:08;;;;;;;15.60;12.93;;;25.00;1.00;;;;;;5030044;28;20037;-57
2022/09/09 00:18:48;;;;;;;12.98;11.68;;;25.00;1.00;;;;;;5031210;28;20026;-56
2022/09/09 00:21:17;;;;;;;13.43;11.55;;;25.10;1.00;;;;;;5037859;28;20095;-57
2022/09/09 00:23:51;;;;;;;13.20;11.77;;;25.00;1.00;;;;;;5036299;28;20029;-58
2022/09/09 00:26:23;;;;;;;14.57;10.88;;;25.00;1.00;;;;;;5037529;28;20025;-57
2022/09/09 00:29:00;;;;;;;15.13;12.77;;;25.00;1.00;;;;;;5034787;28;20213;-58
2022/09/09 00:31:31;;;;;;;19.27;12.85;;;24.80;1.00;;;;;;5030840;28;20030;-57
2022/09/09 00:34:19;;;;;;;13.52;12.13;;;24.80;1.00;;;;;;5031692;28;20049;-58
2022/09/09 00:36:48;;;;;;;14.52;12.98;;;24.80;1.00;;;;;;5036246;28;20087;-57
2022/09/09 00:39:39;;;;;;;12.57;11.27;;;24.80;1.00;;;;;;5038730;28;20074;-58
2022/09/09 00:42:32;;;;;;;15.77;12.65;;;24.80;1.00;;;;;;5034207;28;20033;-57
2022/09/09 00:45:27;;;;;;;15.40;13.40;;;24.80;1.00;;;;;;5023210;28;20021;-57
2022/09/09 00:47:53;;;;;;;16.17;13.80;;;24.70;1.00;;;;;;5042104;28;20079;-57
2022/09/09 00:50:34;;;;;;;14.10;12.70;;;24.60;1.00;;;;;;5032487;28;20098;-57
2022/09/09 00:53:33;;;;;;;15.20;13.60;;;24.70;1.00;;;;;;5030774;28;20625;-57
2022/09/09 00:56:28;;;;;;;15.68;14.02;;;24.60;1.00;;;;;;5031843;28;20322;-57
2022/09/09 01:05:50;;;;;;;17.73;13.88;;;24.60;1.00;;;;;;5026328;28;20115;-55
2022/09/09 01:08:50;;;;;;;14.23;12.82;;;24.60;1.00;;;;;;5030693;28;20142;-57
2022/09/09 01:11:42;;;;;;;17.50;15.10;;;24.60;1.00;;;;;;5031633;28;20045;-57
2022/09/09 01:17:34;;;;;;;18.52;14.13;;;24.40;1.00;;;;;;5024989;28;20119;-56
2022/09/09 01:20:09;;;;;;;16.60;14.63;;;24.50;1.00;;;;;;5029227;28;20037;-56
2022/09/09 01:22:47;;;;;;;15.73;14.10;;;24.50;1.00;;;;;;5031047;28;20045;-57
2022/09/09 01:25:26;;;;;;;16.92;14.93;;;24.60;1.00;;;;;;5030441;28;20064;-58
2022/09/09 01:27:55;;;;;;;15.27;13.77;;;24.40;1.00;;;;;;5030393;28;20037;-57
2022/09/09 01:30:22;;;;;;;17.65;15.07;;;24.50;1.00;;;;;;5024672;28;20375;-56
2022/09/09 01:32:53;;;;;;;15.77;13.57;;;24.50;1.00;;;;;;5031251;28;20041;-57
2022/09/09 01:35:50;;;;;;;16.30;14.40;;;24.50;1.00;;;;;;5027171;28;20026;-58
2022/09/09 01:38:24;;;;;;;17.73;15.88;;;24.60;1.00;;;;;;5012456;28;20038;-58
2022/09/09 01:40:54;;;;;;;18.15;15.43;;;24.60;1.00;;;;;;5031275;28;20067;-58
2022/09/09 01:43:24;;;;;;;18.48;16.38;;;24.50;1.00;;;;;;5031305;28;20494;-57
2022/09/09 01:45:54;;;;;;;20.30;15.48;;;24.40;1.00;;;;;;5030099;28;20029;-58
2022/09/09 01:48:22;;;;;;;17.88;14.43;;;24.50;1.00;;;;;;5030014;28;20383;-58
2022/09/09 01:50:48;;;;;;;19.42;15.45;;;24.50;1.00;;;;;;5032748;28;20060;-57
2022/09/09 01:53:16;;;;;;;18.58;15.30;;;24.50;1.00;;;;;;5033706;28;20068;-56
2022/09/09 01:55:58;;;;;;;18.40;15.88;;;24.50;1.00;;;;;;5033835;28;20499;-58
2022/09/09 01:58:42;;;;;;;17.63;15.82;;;24.40;1.00;;;;;;5029069;28;20435;-58
2022/09/09 02:01:19;;;;;;;17.13;15.48;;;24.40;1.00;;;;;;5035106;28;20103;-58
2022/09/09 02:03:52;;;;;;;18.33;15.68;;;24.30;1.00;;;;;;5030644;28;20360;-58
2022/09/09 02:06:29;;;;;;;18.77;15.63;;;24.40;1.00;;;;;;5032043;28;20111;-59
2022/09/09 02:08:57;;;;;;;17.58;15.57;;;24.40;1.00;;;;;;5031709;28;20045;-58
2022/09/09 02:11:25;;;;;;;19.38;15.57;;;24.50;1.00;;;;;;5028989;28;20033;-58
2022/09/09 02:13:56;;;;;;;17.05;15.30;;;24.40;1.00;;;;;;5031588;28;20032;-58
2022/09/09 02:16:34;;;;;;;16.60;15.00;;;24.40;1.00;;;;;;5028438;28;20499;-58
2022/09/09 02:19:25;;;;;;;17.63;15.85;;;24.50;1.00;;;;;;5029926;28;20029;-57
2022/09/09 02:21:54;;;;;;;17.17;15.45;;;24.50;1.00;;;;;;5033015;28;20398;-57
2022/09/09 02:24:21;;;;;;;21.98;17.60;;;24.50;1.00;;;;;;5030331;28;20120;-58
2022/09/09 02:26:52;;;;;;;17.63;15.82;;;24.40;1.00;;;;;;5031846;28;20034;-58
2022/09/09 02:29:31;;;;;;;19.23;16.67;;;24.20;1.00;;;;;;5024916;28;20467;-58
2022/09/09 02:32:02;;;;;;;18.83;16.25;;;24.30;1.00;;;;;;5022013;28;20055;-57
2022/09/09 02:34:35;;;;;;;20.73;15.70;;;24.40;1.00;;;;;;5031671;28;20455;-57
2022/09/09 02:37:37;;;;;;;18.92;16.58;;;24.50;1.00;;;;;;5026124;28;20076;-57
2022/09/09 02:40:05;;;;;;;19.65;16.98;;;24.50;1.00;;;;;;5025897;28;20156;-58
2022/09/09 02:42:30;;;;;;;24.30;17.42;;;24.30;1.00;;;;;;5029484;28;20048;-58
2022/09/09 02:44:56;;;;;;;21.40;18.08;;;24.30;1.00;;;;;;5032566;28;20427;-57
2022/09/09 02:47:28;;;;;;;19.00;15.90;;;24.40;1.00;;;;;;5029651;28;20034;-58
2022/09/09 02:49:56;;;;;;;18.98;17.00;;;24.40;1.00;;;;;;5031806;28;20364;-58
2022/09/09 02:52:34;;;;;;;27.00;18.42;;;24.30;1.00;;;;;;5026131;28;20191;-57
2022/09/09 02:55:08;;;;;;;20.77;18.67;;;24.30;1.00;;;;;;5028964;28;20033;-58
2022/09/09 02:57:35;;;;;;;20.60;16.98;;;24.30;1.00;;;;;;5022080;28;20037;-58
2022/09/09 03:00:01;;;;;;;20.40;17.67;;;24.40;1.00;;;;;;5028569;28;20035;-58
2022/09/09 03:02:27;;;;;;;22.20;19.70;;;24.40;1.00;;;;;;5029729;28;20032;-58
2022/09/09 03:11:56;;;;;;;21.10;18.90;;;24.20;1.00;;;;;;5002625;28;20104;-59
2022/09/09 03:14:24;;;;;;;23.25;19.17;;;24.10;1.00;;;;;;5028585;28;20064;-59
2022/09/09 03:16:51;;;;;;;20.73;18.60;;;24.10;1.00;;;;;;5031283;28;20124;-57
2022/09/09 03:19:18;;;;;;;21.45;16.85;;;24.00;1.00;;;;;;5030115;28;20159;-58
2022/09/09 03:21:45;;;;;;;22.25;19.95;;;24.10;1.00;;;;;;5033482;28;20022;-58
2022/09/09 03:24:12;;;;;;;21.67;18.88;;;24.00;1.00;;;;;;5028686;28;20021;-58
2022/09/09 03:26:39;;;;;;;23.27;18.75;;;24.10;1.00;;;;;;5029177;28;20026;-57
2022/09/09 03:29:06;;;;;;;20.30;18.02;;;24.00;1.00;;;;;;5031702;28;20110;-58
2022/09/09 03:31:36;;;;;;;21.88;19.55;;;24.10;1.00;;;;;;5028775;28;20061;-58
2022/09/09 03:34:02;;;;;;;24.45;19.65;;;24.10;1.00;;;;;;5029466;28;20028;-56
2022/09/09 03:36:28;;;;;;;20.23;17.77;;;24.00;1.00;;;;;;5028525;28;20131;-59
2022/09/09 03:38:57;;;;;;;20.88;18.70;;;24.10;1.00;;;;;;5030960;28;20072;-57
2022/09/09 03:41:23;;;;;;;21.17;18.90;;;24.10;1.00;;;;;;5029050;28;20076;-58
2022/09/09 03:43:53;;;;;;;22.63;19.00;;;24.00;1.00;;;;;;5029358;28;20028;-57
2022/09/09 03:46:21;;;;;;;22.00;19.67;;;23.90;1.00;;;;;;5029522;28;20017;-58
2022/09/09 03:48:46;;;;;;;20.55;18.33;;;24.10;1.00;;;;;;5029240;28;20387;-58
2022/09/09 03:51:12;;;;;;;21.55;19.25;;;24.00;1.00;;;;;;5043162;28;20026;-58
2022/09/09 03:53:39;;;;;;;21.48;19.23;;;23.80;1.00;;;;;;5027916;28;20033;-57
2022/09/09 03:56:06;;;;;;;22.27;18.58;;;23.90;1.00;;;;;;5028074;28;20388;-58
2022/09/09 03:58:36;;;;;;;22.90;19.13;;;24.10;1.00;;;;;;5027975;28;20022;-57
2022/09/09 04:01:04;;;;;;;21.75;17.60;;;24.00;1.00;;;;;;5031826;28;20376;-58
2022/09/09 04:03:31;;;;;;;22.20;18.40;;;23.90;1.00;;;;;;5028090;28;20037;-57
2022/09/09 04:05:59;;;;;;;21.27;18.08;;;24.00;1.00;;;;;;5026003;28;20033;-56
2022/09/09 04:08:26;;;;;;;20.38;17.70;;;24.10;1.00;;;;;;5033916;28;20029;-57
2022/09/09 04:10:52;;;;;;;23.05;17.67;;;24.10;1.00;;;;;;5032585;28;20056;-56
2022/09/09 04:13:19;;;;;;;19.55;17.40;;;24.10;1.00;;;;;;5035019;28;20541;-58
2022/09/09 04:15:51;;;;;;;19.60;17.30;;;24.10;1.00;;;;;;5040352;28;20056;-58
2022/09/09 04:18:17;;;;;;;19.10;16.75;;;24.10;1.00;;;;;;5034824;28;20535;-57
2022/09/09 04:20:43;;;;;;;18.83;16.70;;;24.00;1.00;;;;;;5033515;28;20162;-58
2022/09/09 04:23:09;;;;;;;20.08;16.75;;;24.00;1.00;;;;;;5032147;28;20029;-58
2022/09/09 04:25:34;;;;;;;19.60;17.60;;;24.10;1.00;;;;;;5035444;28;20037;-58
2022/09/09 04:28:00;;;;;;;20.30;17.40;;;24.00;1.00;;;;;;5023900;28;20092;-58
2022/09/09 04:30:27;;;;;;;19.50;16.83;;;23.90;1.00;;;;;;5032018;28;20017;-58
2022/09/09 04:32:53;;;;;;;18.55;15.93;;;23.80;1.00;;;;;;5032478;28;20336;-58
2022/09/09 04:35:19;;;;;;;22.30;17.10;;;23.90;1.00;;;;;;5036376;28;20070;-58
2022/09/09 04:37:46;;;;;;;18.75;16.48;;;23.90;1.00;;;;;;5032972;28;20033;-58
2022/09/09 04:40:12;;;;;;;20.48;16.73;;;24.00;1.00;;;;;;5034364;28;20347;-58
2022/09/09 04:42:39;;;;;;;20.88;17.83;;;24.00;1.00;;;;;;5031946;28;20018;-58
2022/09/09 04:45:06;;;;;;;22.60;18.75;;;24.00;1.00;;;;;;5030395;28;20383;-58
2022/09/09 04:54:22;;;;;;;25.70;19.30;;;24.00;1.00;;;;;;5025182;28;20080;-58
2022/09/09 04:56:50;;;;;;;24.42;18.85;;;24.00;1.00;;;;;;5026744;28;20038;-57
2022/09/09 04:59:16;;;;;;;22.92;19.10;;;24.00;1.00;;;;;;5032559;28;20460;-58
2022/09/09 05:01:42;;;;;;;22.50;18.63;;;23.60;1.00;;;;;;5033936;28;20029;-57
2022/09/09 05:04:08;;;;;;;21.45;18.27;;;23.50;1.00;;;;;;5032221;28;20041;-56
2022/09/09 05:06:36;;;;;;;25.63;20.58;;;23.50;1.00;;;;;;5023744;28;22196;-58
2022/09/09 05:09:01;;;;;;;23.67;21.13;;;23.60;1.00;;;;;;5030025;28;21734;-57
2022/09/09 05:11:32;;;;;;;24.60;20.25;;;23.60;1.00;;;;;;5035120;28;20036;-58
2022/09/09 05:13:57;;;;;;;27.48;21.70;;;23.80;1.00;;;;;;5033575;28;20426;-58
2022/09/09 05:16:23;;;;;;;26.17;20.77;;;23.80;1.00;;;;;;5033977;28;20120;-58
2022/09/09 05:18:51;;;;;;;24.92;21.02;;;23.80;1.00;;;;;;5040461;28;20025;-57
2022/09/09 05:21:17;;;;;;;26.92;20.98;;;23.90;1.00;;;;;;5032983;28;20037;-57
2022/09/09 05:23:45;;;;;;;26.02;21.90;;;23.80;1.00;;;;;;5036891;28;20115;-58
2022/09/09 05:26:23;;;;;;;22.52;19.20;;;23.80;1.00;;;;;;5031842;28;20033;-57
2022/09/09 05:28:49;;;;;;;29.90;21.25;;;23.80;1.00;;;;;;5037732;28;20029;-58
2022/09/09 05:31:17;;;;;;;25.58;20.98;;;23.80;1.00;;;;;;5041422;28;20159;-58
2022/09/09 05:33:45;;;;;;;25.88;20.85;;;23.90;1.00;;;;;;5032828;28;20475;-58
2022/09/09 05:36:16;;;;;;;22.85;19.00;;;23.80;1.00;;;;;;5034062;28;20404;-58
2022/09/09 05:38:43;;;;;;;25.38;19.80;;;23.80;1.00;;;;;;5031157;28;20030;-57
2022/09/09 05:41:10;;;;;;;23.88;19.25;;;23.80;1.00;;;;;;5031737;28;20349;-57
2022/09/09 05:43:38;;;;;;;22.13;17.83;;;23.70;1.00;;;;;;5033483;28;20391;-59
2022/09/09 05:46:11;;;;;;;21.38;17.92;;;23.70;1.00;;;;;;5032004;28;20040;-57
2022/09/09 05:48:42;;;;;;;18.48;16.58;;;23.70;1.00;;;;;;5028539;28;20548;-57
2022/09/09 05:51:12;;;;;;;20.92;18.00;;;23.70;1.00;;;;;;5032366;28;20079;-58
2022/09/09 05:53:38;;;;;;;21.63;19.33;;;23.80;1.00;;;;;;5035046;28;20195;-56
2022/09/09 05:56:12;;;;;;;22.50;18.25;;;23.70;1.00;;;;;;5032618;28;20102;-56
2022/09/09 05:58:38;;;;;;;19.92;17.40;;;23.70;1.00;;;;;;5034644;28;20032;-58
2022/09/09 06:01:08;;;;;;;18.95;16.60;;;23.70;1.00;;;;;;5027669;28;20087;-57
2022/09/09 06:03:38;;;;;;;20.77;17.65;;;23.80;1.00;;;;;;5031119;28;20092;-57
2022/09/09 06:06:07;;;;;;;23.30;18.05;;;23.70;1.00;;;;;;5030470;28;20068;-57
2022/09/09 06:08:34;;;;;;;20.27;18.38;;;23.80;1.00;;;;;;5032997;28;20022;-57
2022/09/09 06:11:09;;;;;;;21.45;16.88;;;23.70;1.00;;;;;;5031466;28;20034;-57
2022/09/09 06:13:38;;;;;;;24.30;19.08;;;23.80;1.00;;;;;;5030832;28;20123;-57
2022/09/09 06:16:04;;;;;;;22.63;19.30;;;23.70;1.00;;;;;;5030003;28;20029;-54
2022/09/09 06:18:30;;;;;;;19.95;17.83;;;23.60;1.00;;;;;;5030957;28;20045;-53
2022/09/09 06:21:06;;;;;;;21.38;18.23;;;23.70;1.00;;;;;;5030892;28;20055;-56
2022/09/09 06:23:35;;;;;;;23.05;18.98;;;23.70;1.00;;;;;;5029584;28;20029;-55
2022/09/09 06:26:06;;;;;;;22.30;18.60;;;23.70;1.00;;;;;;5035071;28;20029;-54
2022/09/09 06:28:32;;;;;;;21.60;17.33;;;23.80;1.00;;;;;;5027366;28;20041;-51
2022/09/09 06:31:04;;;;;;;23.13;17.30;;;23.80;1.00;;;;;;5028198;28;20028;-54
2022/09/09 06:33:49;;;;;;;21.05;16.33;;;23.80;1.00;;;;;;5029676;28;20117;-55
2022/09/09 06:36:23;;;;;;;22.25;16.85;;;23.90;1.00;;;;;;5031631;28;20030;-55
2022/09/09 06:38:48;;;;;;;18.42;15.50;;;23.90;1.00;;;;;;5024607;28;20040;-56
2022/09/09 06:41:16;;;;;;;19.30;14.45;;;23.90;1.00;;;;;;5030930;28;20025;-56
2022/09/09 06:43:42;;;;;;;21.08;13.90;;;23.90;1.00;;;;;;5027611;28;20032;-56
2022/09/09 06:46:13;;;;;;;15.45;13.85;;;23.80;1.00;;;;;;5029748;28;20030;-55
2022/09/09 06:48:40;;;;;;;17.30;13.50;;;23.90;1.00;;;;;;5024276;28;20050;-57
2022/09/09 06:51:18;;;;;;;15.88;13.43;;;23.90;1.00;;;;;;5031572;28;20022;-56
2022/09/09 06:53:45;;;;;;;14.63;13.18;;;23.80;1.00;;;;;;5032185;28;20022;-56
2022/09/09 06:56:11;;;;;;;16.75;12.57;;;23.80;1.00;;;;;;5034490;28;20041;-56
2022/09/09 06:58:46;;;;;;;14.73;11.57;;;23.80;1.00;;;;;;5031080;28;20438;-56
2022/09/09 07:01:16;;;;;;;14.80;9.80;;;23.80;1.00;;;;;;5032463;28;20029;-55
2022/09/09 07:03:45;;;;;;;8.82;8.02;;;23.70;1.00;;;;;;5031206;28;20032;-53
2022/09/09 07:06:19;;;;;;;11.50;7.25;;;23.70;1.00;;;;;;5030665;28;20071;-56
2022/09/09 07:08:53;;;;;;;8.60;6.88;;;23.90;1.00;;;;;;5040007;28;20067;-55
2022/09/09 07:11:20;;;;;;;8.75;6.10;;;23.90;1.00;;;;;;5032209;28;20029;-56
2022/09/09 07:17:08;;;;;;;10.75;6.85;;;24.00;1.00;;;;;;5024114;28;20048;-55
2022/09/09 07:19:34;;;;;;;10.73;6.93;;;24.00;1.00;;;;;;5032011;28;20108;-54
2022/09/09 07:21:59;;;;;;;7.55;6.20;;;24.00;1.00;;;;;;5044579;28;20453;-55
2022/09/09 07:24:29;;;;;;;8.80;5.68;;;24.00;1.00;;;;;;5031843;28;20029;-56
2022/09/09 07:27:13;;;;;;;8.23;6.32;;;24.10;1.00;;;;;;5043622;28;20347;-55
2022/09/09 07:29:39;;;;;;;8.05;5.50;;;24.20;1.00;;;;;;5020818;28;20328;-56
2022/09/09 07:32:05;;;;;;;7.70;5.78;;;24.20;1.00;;;;;;5030068;28;20039;-56
2022/09/09 07:34:30;;;;;;;9.48;5.82;;;24.10;1.00;;;;;;5032109;28;20017;-58
2022/09/09 07:36:59;;;;;;;9.52;5.13;;;24.10;1.00;;;;;;5031474;28;20076;-53
2022/09/09 07:39:24;;;;;;;8.27;5.43;;;24.20;1.00;;;;;;5027843;28;20025;-56
2022/09/09 07:41:50;;;;;;;7.53;5.07;;;24.20;1.00;;;;;;5034048;28;20519;-54
2022/09/09 07:44:22;;;;;;;6.72;5.15;;;24.30;1.00;;;;;;5038924;28;20108;-57
2022/09/09 07:46:48;;;;;;;5.50;4.93;;;24.30;1.00;;;;;;5048953;28;20028;-58
2022/09/09 07:49:14;;;;;;;6.40;4.68;;;24.10;1.00;;;;;;5037232;28;20021;-56
2022/09/09 07:51:42;;;;;;;7.53;4.55;;;24.10;1.00;;;;;;5051825;28;20032;-57
2022/09/09 07:54:11;;;;;;;10.25;5.18;;;24.10;1.00;;;;;;5034873;28;20029;-56
2022/09/09 07:56:38;;;;;;;6.72;3.72;;;24.20;1.00;;;;;;5037898;28;20033;-56
2022/09/09 07:59:06;;;;;;;4.38;3.00;;;24.00;1.00;;;;;;5020490;28;20029;-57
2022/09/09 08:01:39;;;;;;;5.82;3.40;;;24.00;1.00;;;;;;5037231;28;20415;-58
2022/09/09 08:04:07;;;;;;;5.13;3.53;;;24.10;1.00;;;;;;5038292;28;20026;-57
2022/09/09 08:06:40;;;;;;;7.55;3.70;;;24.00;1.00;;;;;;5037372;28;20133;-57
2022/09/09 08:09:07;;;;;;;6.20;3.42;;;24.10;1.00;;;;;;5038554;28;20030;-57
2022/09/09 08:11:33;;;;;;;4.80;2.60;;;24.20;1.00;;;;;;5037204;28;20030;-58
2022/09/09 08:14:00;;;;;;;5.78;2.58;;;24.10;1.00;;;;;;5037868;28;20053;-57
2022/09/09 08:16:29;;;;;;;6.70;2.95;;;24.10;1.00;;;;;;5043149;28;20036;-56
2022/09/09 08:18:55;;;;;;;7.25;2.75;;;24.10;1.00;;;;;;5038096;28;20057;-57
2022/09/09 08:21:27;;;;;;;2.72;2.22;;;24.10;1.00;;;;;;5037314;28;20068;-58
2022/09/09 08:23:54;;;;;;;3.42;2.63;;;24.10;1.00;;;;;;5024199;28;20075;-55
2022/09/09 08:26:23;;;;;;;7.00;2.38;;;24.20;1.00;;;;;;5028603;28;20048;-57
2022/09/09 08:28:54;;;;;;;4.97;2.17;;;24.30;1.00;;;;;;5039796;28;20509;-56
2022/09/09 08:31:22;;;;;;;3.85;2.50;;;24.20;1.00;;;;;;5046596;28;20018;-56
2022/09/09 08:33:49;;;;;;;3.83;2.28;;;24.30;1.00;;;;;;5039840;28;20087;-56
2022/09/09 08:36:21;;;;;;;5.20;2.50;;;24.30;1.00;;;;;;5047991;28;20036;-55
2022/09/09 08:39:08;;;;;;;3.65;2.00;;;24.30;1.00;;;;;;5034742;28;20095;-57
2022/09/09 08:42:01;;;;;;;3.60;2.05;;;24.30;1.00;;;;;;5045528;28;20104;-56
2022/09/09 08:44:45;;;;;;;3.97;2.15;;;24.30;1.00;;;;;;5026086;28;20379;-54
2022/09/09 08:47:38;;;;;;;7.60;2.28;;;24.40;1.00;;;;;;5037978;28;20032;-56
2022/09/09 08:50:24;;;;;;;3.97;1.75;;;24.40;1.00;;;;;;5035473;28;20368;-56
2022/09/09 08:52:55;;;;;;;6.28;2.20;;;24.40;1.00;;;;;;5037302;28;20091;-56
2022/09/09 08:55:35;;;;;;;6.53;1.92;;;24.40;1.00;;;;;;5036729;28;20037;-56
2022/09/09 08:58:29;;;;;;;4.13;2.13;;;24.40;1.00;;;;;;5034797;28;20449;-56
2022/09/09 09:00:55;;;;;;;3.63;1.73;;;24.50;1.00;;;;;;5039876;28;20044;-55
2022/09/09 09:03:44;;;;;;;5.28;2.10;;;24.60;1.00;;;;;;5032953;28;20050;-55
2022/09/09 09:06:13;;;;;;;6.80;1.85;;;24.60;1.00;;;;;;5026236;28;20047;-57
2022/09/09 09:09:21;;;;;;;2.97;1.77;;;24.60;1.00;;;;;;5031843;28;20129;-57
2022/09/09 09:11:53;;;;;;;2.15;1.73;;;24.60;1.00;;;;;;5032931;28;20033;-55
2022/09/09 09:14:25;;;;;;;6.13;1.70;;;24.70;1.00;;;;;;5036859;28;20111;-56
2022/09/09 09:16:58;;;;;;;1.90;1.42;;;24.60;1.00;;;;;;5034509;28;20037;-55
2022/09/09 09:19:26;;;;;;;2.35;0.80;;;24.70;1.00;;;;;;5033240;28;20018;-57
2022/09/09 09:22:16;;;;;;;3.53;1.20;;;24.80;1.00;;;;;;5034028;28;20191;-58
2022/09/09 09:24:55;;;;;;;3.35;1.63;;;24.80;1.00;;;;;;5038355;28;20021;-53
2022/09/09 09:27:23;;;;;;;3.70;2.08;;;25.00;1.00;;;;;;5034171;28;20459;-53
2022/09/09 09:29:51;;;;;;;4.63;1.73;;;25.20;1.00;;;;;;5038710;28;20056;-57
2022/09/09 09:32:19;;;;;;;3.30;1.90;;;25.30;1.00;;;;;;5036584;28;20029;-57
2022/09/09 09:34:55;;;;;;;2.50;1.17;;;25.40;1.00;;;;;;5040590;28;20017;-57
2022/09/09 09:37:34;;;;;;;0.95;0.82;;;25.40;1.00;;;;;;5021416;28;20073;-60
2022/09/09 09:40:17;;;;;;;2.13;1.00;;;25.40;1.00;;;;;;5034533;28;20079;-60
2022/09/09 09:42:59;;;;;;;4.45;1.00;;;25.60;1.00;;;;;;5032969;28;20116;-62
2022/09/09 09:45:44;;;;;;;1.13;0.90;;;25.70;1.00;;;;;;5030876;28;20032;-62
2022/09/09 09:48:11;;;;;;;1.35;1.10;;;25.80;1.00;;;;;;5033718;28;20114;-63
2022/09/09 09:51:00;;;;;;;1.90;1.30;;;25.90;1.00;;;;;;5035126;28;20098;-63
2022/09/09 09:53:35;;;;;;;2.28;0.93;;;25.80;1.00;;;;;;5018965;28;20526;-61
2022/09/09 09:56:06;;;;;;;4.93;1.25;;;25.80;1.00;;;;;;5032068;28;20438;-61
2022/09/09 09:58:54;;;;;;;2.92;1.33;;;25.90;1.00;;;;;;5033454;28;20028;-62
2022/09/09 10:01:33;;;;;;;2.78;1.40;;;25.90;1.00;;;;;;5028849;28;20021;-62
2022/09/09 10:04:03;;;;;;;1.48;1.20;;;25.70;1.00;;;;;;5033284;28;20036;-62
2022/09/09 10:06:39;;;;;;;2.10;0.90;;;25.50;1.00;;;;;;5034047;28;20021;-62
2022/09/09 10:09:22;;;;;;;2.30;1.27;;;25.30;1.00;;;;;;5032379;28;20025;-62
2022/09/09 10:12:36;;;;;;;1.55;1.45;;;25.20;1.00;;;;;;5034357;28;20029;-61
2022/09/09 10:15:25;;;;;;;1.10;1.10;;;25.40;1.00;;;;;;4996713;28;20137;-61
2022/09/09 10:17:57;;;;;;;3.20;1.33;;;25.40;1.00;;;;;;5034788;28;20391;-62
2022/09/09 10:20:39;;;;;;;3.17;0.88;;;25.40;1.00;;;;;;5032990;28;20472;-62
2022/09/09 10:23:16;;;;;;;0.93;0.88;;;25.50;1.00;;;;;;5032014;28;20057;-62
2022/09/09 10:26:08;;;;;;;1.80;1.00;;;25.50;1.00;;;;;;5040162;28;20067;-61
2022/09/09 10:28:58;;;;;;;1.80;1.13;;;25.50;1.00;;;;;;5031495;28;20057;-61
2022/09/09 10:31:45;;;;;;;1.75;1.00;;;25.50;1.00;;;;;;5031931;28;20364;-62
2022/09/09 10:34:54;;;;;;;3.03;1.40;;;25.50;1.00;;;;;;5032902;28;20021;-62
2022/09/09 10:37:32;;;;;;;1.42;1.33;;;25.50;1.00;;;;;;5030637;28;20045;-62
2022/09/09 10:40:29;;;;;;;1.25;1.05;;;25.60;1.00;;;;;;5033134;28;20074;-62
2022/09/09 10:43:01;;;;;;;2.17;1.70;;;25.60;1.00;;;;;;5033665;28;20029;-62
2022/09/09 10:45:58;;;;;;;1.65;1.30;;;25.70;1.00;;;;;;5033812;28;20463;-62
2022/09/09 10:48:30;;;;;;;1.85;1.30;;;25.70;1.00;;;;;;5029903;28;20047;-62
2022/09/09 10:51:37;;;;;;;1.83;1.20;;;25.80;1.00;;;;;;5041840;28;20024;-62
2022/09/09 10:54:33;;;;;;;1.80;1.40;;;25.90;1.00;;;;;;5031112;28;20102;-62
2022/09/09 10:57:11;;;;;;;1.90;1.40;;;25.90;1.00;;;;;;5019991;28;20029;-62
2022/09/09 10:59:43;;;;;;;3.83;1.85;;;26.00;1.00;;;;;;5020076;28;20399;-62
2022/09/09 11:02:28;;;;;;;4.32;1.55;;;26.00;1.00;;;;;;5038682;28;20036;-62
2022/09/09 11:05:01;;;;;;;2.08;1.10;;;26.00;1.00;;;;;;5034421;28;20026;-62
2022/09/09 11:07:43;;;;;;;2.30;1.60;;;26.00;1.00;;;;;;5031473;28;20029;-62
2022/09/09 11:10:34;;;;;;;3.10;1.40;;;26.10;1.00;;;;;;5032313;28;20026;-62
2022/09/09 11:13:05;;;;;;;1.70;1.55;;;26.20;1.00;;;;;;5017405;28;20041;-62
2022/09/09 11:15:51;;;;;;;6.28;2.80;;;26.30;1.00;;;;;;5035230;28;20036;-62
2022/09/09 11:18:21;;;;;;;2.95;1.55;;;26.40;1.00;;;;;;5033539;28;20190;-62
2022/09/09 11:20:56;;;;;;;2.72;1.60;;;26.50;1.00;;;;;;5032291;28;20029;-62
2022/09/09 11:23:37;;;;;;;3.17;1.08;;;26.50;1.00;;;;;;5031200;28;20323;-62
2022/09/09 11:26:04;;;;;;;2.65;1.73;;;26.60;1.00;;;;;;5032171;28;20017;-62
2022/09/09 11:29:03;;;;;;;5.65;4.28;;;26.60;1.00;;;;;;5028440;28;20057;-62
2022/09/09 11:32:03;;;;;;;2.90;1.67;;;26.70;1.00;;;;;;5030973;28;20057;-62
2022/09/09 11:34:37;;;;;;;3.60;2.00;;;26.60;1.00;;;;;;5032119;28;20064;-62
2022/09/09 11:37:30;;;;;;;4.43;1.77;;;26.70;1.00;;;;;;5026741;28;20384;-62
2022/09/09 11:40:20;;;;;;;2.53;1.67;;;26.80;1.00;;;;;;5041055;28;20078;-63
2022/09/09 11:42:49;;;;;;;1.83;1.58;;;26.80;1.00;;;;;;5031532;28;20065;-62
2022/09/09 11:45:28;;;;;;;2.90;2.10;;;27.00;1.00;;;;;;5023599;28;20037;-62
2022/09/09 11:48:05;;;;;;;3.58;2.08;;;27.00;1.00;;;;;;5037853;28;20227;-63
2022/09/09 11:50:37;;;;;;;2.90;1.40;;;27.10;1.00;;;;;;5031832;28;20120;-62
2022/09/09 11:53:22;;;;;;;2.33;1.67;;;27.20;1.00;;;;;;5030862;28;20040;-62
2022/09/09 11:56:08;;;;;;;3.13;1.92;;;27.40;1.00;;;;;;5029337;28;20034;-62
2022/09/09 11:58:39;;;;;;;3.05;1.40;;;27.50;1.00;;;;;;5035773;28;20040;-61
2022/09/09 12:01:16;;;;;;;3.85;1.70;;;27.60;1.00;;;;;;5029847;28;20029;-62
2022/09/09 12:03:52;;;;;;;3.72;1.70;;;27.60;1.00;;;;;;5031591;28;20030;-62
2022/09/09 12:06:41;;;;;;;3.05;1.88;;;27.70;1.00;;;;;;5031130;28;20021;-62
2022/09/09 12:09:15;;;;;;;6.13;2.10;;;27.90;1.00;;;;;;5021853;28;20026;-62
2022/09/09 12:11:41;;;;;;;3.45;1.85;;;28.00;1.00;;;;;;5030460;28;20049;-62
2022/09/09 12:14:35;;;;;;;2.40;2.10;;;28.20;1.00;;;;;;5041652;28;20474;-63
2022/09/09 12:17:15;;;;;;;4.28;2.10;;;28.50;1.00;;;;;;5029509;28;20553;-63
2022/09/09 12:19:42;;;;;;;3.70;1.83;;;28.60;1.00;;;;;;5031977;28;20108;-63
2022/09/09 12:22:25;;;;;;;2.25;1.90;;;30.80;1.00;;;;;;5032770;28;20036;-63
2022/09/09 12:25:30;;;;;;;3.35;2.33;;;36.20;1.00;;;;;;5046549;28;20041;-64
2022/09/09 12:28:09;;;;;;;2.45;2.25;;;39.30;1.00;;;;;;5031722;28;20034;-63
2022/09/09 12:30:46;;;;;;;3.97;2.20;;;40.80;1.00;;;;;;5034856;28;20013;-64
2022/09/09 12:33:16;;;;;;;3.25;2.63;;;38.70;1.00;;;;;;5034669;28;20017;-63
2022/09/09 12:35:44;;;;;;;5.18;2.58;;;39.90;1.00;;;;;;5033391;28;20131;-62
2022/09/09 12:38:29;;;;;;;3.33;2.88;;;41.90;1.00;;;;;;5034275;28;20139;-64
2022/09/09 12:40:57;;;;;;;5.90;3.25;;;43.70;1.00;;;;;;5024659;28;20147;-64
2022/09/09 12:43:24;;;;;;;4.88;3.70;;;42.70;1.00;;;;;;5040230;28;20041;-63
2022/09/09 12:46:04;;;;;;;3.90;3.17;;;43.50;1.00;;;;;;5032205;28;20060;-63
2022/09/09 12:48:45;;;;;;;3.55;3.30;;;45.50;1.00;;;;;;5037552;28;20025;-64
2022/09/09 12:51:31;;;;;;;3.67;3.38;;;45.60;99.90;;;;;;5037615;28;20044;-61
2022/09/09 12:53:58;;;;;;;3.97;3.67;;;46.30;99.90;;;;;;5032920;28;20051;-62
2022/09/09 12:56:30;;;;;;;3.72;3.40;;;45.80;1.00;;;;;;5034133;28;20478;-62
2022/09/09 12:58:58;;;;;;;3.75;3.55;;;44.40;99.90;;;;;;5023224;28;20456;-62
2022/09/09 13:01:32;;;;;;;3.97;3.67;;;42.90;1.00;;;;;;5024507;28;20022;-63
2022/09/09 13:03:58;;;;;;;5.03;4.72;;;42.00;1.00;;;;;;5047010;28;20056;-63
2022/09/09 13:06:31;;;;;;;4.30;3.95;;;43.30;1.00;;;;;;5034655;28;20057;-63
2022/09/09 13:08:59;;;;;;;3.92;3.72;;;45.40;99.90;;;;;;5033419;28;20482;-63
2022/09/09 13:11:46;;;;;;;4.20;3.95;;;46.60;99.90;;;;;;5034305;28;20039;-63
2022/09/09 13:14:29;;;;;;;4.05;3.90;;;47.60;99.90;;;;;;5034148;28;20041;-63
2022/09/09 13:16:56;;;;;;;;;;;48.20;99.90;;;;;;5015573;28;20048;-63
2022/09/09 13:19:22;;;;;;;4.60;4.40;;;47.40;99.90;;;;;;5035393;28;19905;-63
2022/09/09 13:21:48;;;;;;;4.55;4.20;;;47.50;99.90;;;;;;5034448;28;20075;-63
2022/09/09 13:24:32;;;;;;;4.40;4.20;;;47.40;99.90;;;;;;5035321;28;20455;-62
2022/09/09 13:27:02;;;;;;;4.60;4.40;;;48.20;99.90;;;;;;5033170;28;20337;-63
2022/09/09 13:29:30;;;;;;;4.88;4.68;;;48.20;99.90;;;;;;5036547;28;20091;-63
2022/09/09 13:32:17;;;;;;;5.05;4.75;;;48.30;99.90;;;;;;5033652;28;20045;-62
2022/09/09 13:35:23;;;;;;;4.85;4.55;;;47.60;99.90;;;;;;5032265;28;20029;-62
2022/09/09 13:37:48;;;;;;;4.55;4.15;;;47.50;99.90;;;;;;5029664;28;20240;-63
2022/09/09 13:40:19;;;;;;;4.93;4.57;;;48.30;99.90;;;;;;5032173;28;20162;-63
2022/09/09 13:42:45;;;;;;;5.28;4.97;;;47.90;99.90;;;;;;5032987;28;20130;-63
2022/09/09 13:45:21;;;;;;;4.88;4.40;;;47.30;99.90;;;;;;5032395;28;20372;-63
2022/09/09 13:47:52;;;;;;;4.72;4.35;;;45.10;99.90;;;;;;5032770;28;20029;-63